SKCL

Details ICAO SKCL (CLO)
Name ALFONSO BONILLA ARAGON INTL
Region Colombia
Timezone America/Bogota (UTC-5.0)
Plans Departing 259
Arriving 276
Stats Elevation 3,162 ft / 964 m (AMSL)
Location 3.543221° -76.381587°
Runways 1
Magnetic Variation 5.662° W
Sunrise 2018-06-25 10:59:36 UTC / 2018-06-25 05:59:36 Local
Sunset 2018-06-25 23:19:09 UTC / 2018-06-25 18:19:09 Local
Advertisement - Login to hide

Runways

ID Width Length Bearing (true) Bearing (mag) Surface Threshold Offset Overrun Length
01 148 ft / 45 m 9,869 ft / 3,008 m 9.91° 15.57° Asphalt 0 ft / 0 m 50 ft / 15 m
19 148 ft / 45 m 9,869 ft / 3,008 m 189.91° 195.57° Asphalt 0 ft / 0 m 65 ft / 20 m

Approach Navaids

Runway Type Ident Frequency Range Bearing (true) Bearing (mag) Slope Elevation
01 Localiser IPAS 109.90 MHz 18 nm / 33 km 9.69° 15.35° - 3,162 ft / 964 m (AMSL)
01 Glidescope IPAS 109.90 MHz 10 nm / 19 km 9.91° 15.57° 2.50° 3,162 ft / 964 m (AMSL)

Map

Weather


0- 5 10 15 20 25 30 35+ Temperature / ° C

Clouds and Precipitation
Forecast for 2018-06-25 12:00 UTC. Updated 2 hours ago

Ground ~20,000 ft ~40,000 ft Winds

METAR

SKCL 251100Z 16003KT 9999 FEW030 SCT120 BKN300 19/19 A2999

TAF

Not found

Frequencies

Ground 121.90 MHz GND
Approach 119.10 MHz CALI APP
Tower 118.10 MHz TWR
Warning: Do not use this data for real-world aviation or navigation. No guarantee of current accuracy is given.